createdAt,value
2023-03-10T00:00:54.695Z,8.23
2023-03-10T00:03:22.641Z,7.90
2023-03-10T00:05:50.625Z,7.87
2023-03-10T00:08:18.629Z,8.50
2023-03-10T00:10:47.995Z,8.60
2023-03-10T00:13:15.918Z,7.83
2023-03-10T00:15:45.260Z,7.47
2023-03-10T00:18:13.243Z,7.43
2023-03-10T00:20:41.295Z,7.40
2023-03-10T00:23:09.740Z,7.57
2023-03-10T00:25:37.829Z,7.93
2023-03-10T00:28:08.871Z,8.37
2023-03-10T00:30:36.806Z,8.50
2023-03-10T00:33:06.152Z,8.73
2023-03-10T00:35:34.131Z,8.67
2023-03-10T00:38:02.690Z,8.80
2023-03-10T00:40:30.822Z,8.07
2023-03-10T00:42:59.572Z,7.80
2023-03-10T00:45:27.533Z,7.17
2023-03-10T00:47:55.509Z,7.90
2023-03-10T00:50:24.787Z,8.07
2023-03-10T00:52:52.689Z,7.67
2023-03-10T00:55:20.675Z,7.80
2023-03-10T00:57:48.773Z,7.37
2023-03-10T01:00:18.220Z,7.90
2023-03-10T01:02:46.345Z,7.30
2023-03-10T01:05:15.892Z,7.37
2023-03-10T01:07:45.203Z,7.53
2023-03-10T01:10:14.331Z,7.33
2023-03-10T01:12:42.347Z,6.93
2023-03-10T01:15:13.156Z,7.00
2023-03-10T01:17:41.139Z,7.10
2023-03-10T01:20:15.126Z,6.67
2023-03-10T01:22:43.294Z,6.80
2023-03-10T01:25:15.695Z,6.60
2023-03-10T01:27:44.308Z,6.40
2023-03-10T01:30:13.552Z,6.83
2023-03-10T01:32:41.907Z,6.60
2023-03-10T01:35:11.142Z,7.00
2023-03-10T01:37:39.133Z,6.67
2023-03-10T01:40:08.834Z,6.10
2023-03-10T01:42:38.313Z,5.80
2023-03-10T01:45:11.789Z,4.37
2023-03-10T01:47:39.750Z,4.07
2023-03-10T01:50:13.837Z,4.70
2023-03-10T01:52:44.670Z,3.73
2023-03-10T01:55:16.573Z,3.43
2023-03-10T01:57:49.038Z,2.47
2023-03-10T02:00:18.152Z,3.23
2023-03-10T02:02:54.168Z,3.00
2023-03-10T02:05:23.074Z,2.87
2023-03-10T02:07:51.940Z,3.00
2023-03-10T02:10:20.154Z,2.60
2023-03-10T02:12:49.458Z,3.00
2023-03-10T02:15:17.444Z,3.00
2023-03-10T02:17:45.974Z,3.27
2023-03-10T02:20:25.215Z,3.23
2023-03-10T02:22:53.661Z,3.50
2023-03-10T02:25:30.492Z,3.23
2023-03-10T02:28:00.291Z,3.67
2023-03-10T02:30:33.080Z,3.60
2023-03-10T02:33:05.669Z,3.60
2023-03-10T02:35:33.664Z,3.47
2023-03-10T02:38:01.692Z,3.63
2023-03-10T02:40:37.704Z,4.80
2023-03-10T02:43:12.709Z,4.30
2023-03-10T02:45:43.939Z,3.20
2023-03-10T02:48:14.399Z,4.57
2023-03-10T02:50:45.565Z,3.17
2023-03-10T02:53:16.955Z,2.83
2023-03-10T02:55:45.448Z,2.67
2023-03-10T02:58:14.908Z,2.43
2023-03-10T03:00:45.648Z,2.30
2023-03-10T03:03:15.679Z,2.70
2023-03-10T03:05:43.894Z,3.23
2023-03-10T03:08:12.352Z,2.97
2023-03-10T03:10:40.830Z,2.87
2023-03-10T03:13:09.702Z,2.90
2023-03-10T03:15:41.788Z,2.90
2023-03-10T03:18:10.200Z,2.87
2023-03-10T03:20:40.988Z,3.27
2023-03-10T03:23:09.308Z,2.90
2023-03-10T03:25:40.199Z,2.90
2023-03-10T03:28:10.011Z,2.90
2023-03-10T03:30:38.329Z,2.77
2023-03-10T03:33:08.945Z,2.97
2023-03-10T03:35:38.663Z,2.50
2023-03-10T03:38:08.533Z,2.30
2023-03-10T03:40:37.811Z,2.47
2023-03-10T03:43:06.364Z,2.60
2023-03-10T03:45:34.717Z,2.77
2023-03-10T03:48:02.773Z,2.83
2023-03-10T03:50:32.219Z,2.50
2023-03-10T03:53:00.324Z,2.60
2023-03-10T03:55:29.014Z,2.93
2023-03-10T03:57:57.062Z,2.53
2023-03-10T04:00:26.107Z,2.73
2023-03-10T04:02:54.064Z,2.70
2023-03-10T04:05:21.993Z,3.37
2023-03-10T04:07:51.439Z,3.13
2023-03-10T04:10:21.466Z,3.60
2023-03-10T04:12:49.483Z,4.13
2023-03-10T04:15:17.491Z,3.47
2023-03-10T04:17:45.525Z,3.30
2023-03-10T04:20:14.398Z,4.10
2023-03-10T04:22:42.689Z,4.27
2023-03-10T04:25:12.611Z,4.23
2023-03-10T04:27:40.516Z,4.47
2023-03-10T04:30:09.926Z,4.43
2023-03-10T04:32:38.089Z,5.27
2023-03-10T04:35:07.976Z,5.50
2023-03-10T04:37:35.952Z,5.10
2023-03-10T04:40:08.487Z,5.10
2023-03-10T04:42:38.127Z,5.27
2023-03-10T04:45:07.169Z,6.10
2023-03-10T04:47:35.293Z,5.80
2023-03-10T04:50:03.325Z,5.60
2023-03-10T04:52:34.432Z,5.50
2023-03-10T04:55:02.483Z,5.77
2023-03-10T04:57:30.473Z,7.23
2023-03-10T05:00:02.615Z,6.70
2023-03-10T05:02:32.997Z,6.07
2023-03-10T05:05:01.584Z,5.83
2023-03-10T05:07:29.829Z,5.77
2023-03-10T05:09:57.832Z,7.03
2023-03-10T05:12:25.754Z,6.73
2023-03-10T05:14:53.643Z,6.37
2023-03-10T05:17:23.014Z,5.80
2023-03-10T05:19:50.960Z,5.37
2023-03-10T05:22:18.879Z,5.97
2023-03-10T05:24:48.110Z,5.77
2023-03-10T05:27:18.482Z,5.53
2023-03-10T05:29:46.787Z,5.87
2023-03-10T05:32:14.938Z,5.80
2023-03-10T05:34:44.398Z,6.20
2023-03-10T05:37:12.412Z,6.03
2023-03-10T05:39:40.378Z,5.87
2023-03-10T05:42:08.548Z,5.10
2023-03-10T05:44:36.525Z,5.00
2023-03-10T05:47:04.663Z,4.70
2023-03-10T05:49:33.170Z,4.90
2023-03-10T05:52:05.410Z,6.00
2023-03-10T05:54:33.437Z,6.17
2023-03-10T05:57:01.517Z,5.97
2023-03-10T05:59:29.673Z,5.03
2023-03-10T06:01:57.604Z,5.37
2023-03-10T06:04:25.687Z,5.77
2023-03-10T06:06:56.048Z,5.60
2023-03-10T06:09:25.413Z,5.57
2023-03-10T06:11:53.501Z,5.47
2023-03-10T06:14:21.476Z,5.47
2023-03-10T06:16:51.721Z,5.40
2023-03-10T06:19:20.051Z,6.00
2023-03-10T06:21:48.031Z,6.00
2023-03-10T06:24:16.123Z,5.07
2023-03-10T06:26:45.488Z,6.10
2023-03-10T06:29:13.419Z,5.53
2023-03-10T06:31:41.373Z,5.33
2023-03-10T06:34:09.363Z,5.47
2023-03-10T06:36:40.464Z,6.17
2023-03-10T06:39:08.990Z,5.40
2023-03-10T06:41:37.588Z,5.43
2023-03-10T06:44:06.991Z,5.83
2023-03-10T06:46:35.618Z,5.57
2023-03-10T06:49:03.596Z,5.37
2023-03-10T06:51:31.604Z,6.30
2023-03-10T06:53:59.636Z,5.87
2023-03-10T06:56:27.655Z,6.30
2023-03-10T06:58:55.736Z,5.90
2023-03-10T07:01:28.061Z,6.53
2023-03-10T07:03:56.546Z,6.10
2023-03-10T07:06:25.356Z,7.13
2023-03-10T07:08:54.660Z,5.53
2023-03-10T07:11:23.657Z,5.77
2023-03-10T07:13:51.740Z,5.70
2023-03-10T07:16:20.523Z,6.13
2023-03-10T07:18:50.385Z,5.47
2023-03-10T07:21:20.064Z,5.50
2023-03-10T07:23:48.241Z,6.07
2023-03-10T07:26:18.849Z,5.33
2023-03-10T07:28:46.991Z,5.30
2023-03-10T07:31:15.980Z,5.73
2023-03-10T07:33:44.317Z,5.40
2023-03-10T07:36:17.255Z,4.97
2023-03-10T07:38:45.469Z,5.47
2023-03-10T07:41:16.620Z,5.07
2023-03-10T07:43:44.952Z,5.73
2023-03-10T07:46:15.571Z,5.13
2023-03-10T07:48:44.135Z,5.27
2023-03-10T07:51:13.667Z,4.47
2023-03-10T07:53:41.670Z,4.63
2023-03-10T07:56:11.223Z,4.47
2023-03-10T07:58:39.725Z,4.33
2023-03-10T08:01:09.480Z,4.17
2023-03-10T08:03:40.898Z,4.10
2023-03-10T08:06:09.030Z,4.13
2023-03-10T08:08:38.483Z,4.30
2023-03-10T08:11:10.571Z,3.80
2023-03-10T08:13:39.248Z,4.37
2023-03-10T08:16:08.345Z,4.00
2023-03-10T08:18:36.716Z,3.93
2023-03-10T08:21:05.800Z,3.93
2023-03-10T08:23:35.534Z,4.10
2023-03-10T08:26:07.260Z,4.27
2023-03-10T08:28:38.850Z,4.13
2023-03-10T08:31:11.456Z,3.77
2023-03-10T08:33:40.133Z,4.27
2023-03-10T08:36:10.184Z,4.07
2023-03-10T08:38:38.594Z,4.63
2023-03-10T08:41:15.197Z,4.80
2023-03-10T08:43:44.028Z,3.90
2023-03-10T08:46:13.538Z,3.93
2023-03-10T08:48:43.044Z,3.87
2023-03-10T08:51:14.449Z,4.07
2023-03-10T08:53:44.565Z,4.00
2023-03-10T08:56:14.626Z,4.77
2023-03-10T08:58:42.955Z,4.37
2023-03-10T09:01:14.365Z,4.40
2023-03-10T09:03:44.554Z,4.40
2023-03-10T09:06:16.195Z,4.40
2023-03-10T09:08:44.391Z,4.23
2023-03-10T09:11:17.686Z,4.10
2023-03-10T09:13:45.707Z,4.17
2023-03-10T09:16:14.734Z,4.20
2023-03-10T09:18:43.068Z,3.67
2023-03-10T09:21:13.600Z,3.83
2023-03-10T09:23:43.341Z,3.20
2023-03-10T09:26:13.005Z,2.80
2023-03-10T09:28:41.045Z,2.67
2023-03-10T09:31:10.488Z,2.40
2023-03-10T09:33:39.301Z,2.63
2023-03-10T09:36:08.692Z,3.10
2023-03-10T09:38:37.403Z,3.03
2023-03-10T09:41:18.976Z,3.67
2023-03-10T09:43:54.358Z,3.23
2023-03-10T09:46:28.055Z,3.67
2023-03-10T09:49:06.062Z,3.30
2023-03-10T09:51:34.496Z,3.80
2023-03-10T09:54:18.059Z,3.57
2023-03-10T09:56:47.680Z,3.87
2023-03-10T09:59:18.472Z,3.07
2023-03-10T10:01:50.292Z,3.50
2023-03-10T10:04:22.824Z,3.83
2023-03-10T10:06:55.547Z,3.70
2023-03-10T10:09:30.067Z,3.80
2023-03-10T10:12:00.842Z,4.33
2023-03-10T10:14:31.452Z,3.80
2023-03-10T10:17:08.407Z,3.77
2023-03-10T10:19:39.523Z,4.17
2023-03-10T10:22:13.498Z,4.33
2023-03-10T10:24:41.751Z,4.63
2023-03-10T10:27:11.091Z,4.57
2023-03-10T10:29:42.443Z,3.80
2023-03-10T10:32:13.087Z,5.07
2023-03-10T10:34:42.669Z,4.30
2023-03-10T10:37:29.843Z,4.37
2023-03-10T10:39:59.672Z,4.47
2023-03-10T10:42:34.241Z,4.23
2023-03-10T10:45:04.742Z,4.10
2023-03-10T10:47:34.410Z,4.37
2023-03-10T10:50:19.466Z,4.50
2023-03-10T10:52:49.951Z,4.77
2023-03-10T10:55:28.420Z,4.60
2023-03-10T10:58:01.720Z,4.60
2023-03-10T11:00:32.430Z,4.20
2023-03-10T11:03:00.870Z,4.80
2023-03-10T11:05:34.448Z,5.00
2023-03-10T11:08:18.193Z,5.20
2023-03-10T11:10:54.575Z,5.03
2023-03-10T11:13:30.471Z,5.53
2023-03-10T11:16:07.972Z,4.97
2023-03-10T11:18:40.330Z,5.73
2023-03-10T11:21:15.021Z,4.73
2023-03-10T11:23:51.231Z,5.00
2023-03-10T11:26:33.720Z,4.30
2023-03-10T11:29:10.921Z,6.03
2023-03-10T11:31:45.583Z,4.90
2023-03-10T11:34:20.591Z,4.93
2023-03-10T11:36:57.384Z,4.77
2023-03-10T11:39:36.923Z,5.07
2023-03-10T11:42:12.835Z,5.57
2023-03-10T11:44:48.696Z,5.00
2023-03-10T11:47:25.842Z,5.27
2023-03-10T11:50:04.254Z,4.97
2023-03-10T11:52:34.270Z,5.10
2023-03-10T11:55:06.811Z,4.77
2023-03-10T11:57:41.117Z,5.10
2023-03-10T12:00:23.768Z,5.37
2023-03-10T12:03:07.005Z,4.83
2023-03-10T12:05:45.343Z,5.20
2023-03-10T12:08:15.102Z,4.57
2023-03-10T12:10:43.484Z,4.87
2023-03-10T12:13:22.631Z,4.20
2023-03-10T12:15:55.929Z,4.57
2023-03-10T12:18:26.769Z,4.70
2023-03-10T12:21:16.710Z,4.90
2023-03-10T12:23:46.178Z,5.67
2023-03-10T12:26:14.361Z,4.97
2023-03-10T12:28:45.457Z,4.93
2023-03-10T12:31:46.041Z,5.40
2023-03-10T12:34:15.383Z,4.90
2023-03-10T12:36:46.446Z,5.17
2023-03-10T12:39:33.010Z,5.03
2023-03-10T12:42:02.548Z,4.77
2023-03-10T12:44:49.018Z,5.40
2023-03-10T12:47:29.821Z,4.60
2023-03-10T12:50:04.258Z,5.40
2023-03-10T12:52:40.200Z,4.93
2023-03-10T12:55:24.323Z,4.80
2023-03-10T12:58:11.846Z,3.93
2023-03-10T13:00:46.237Z,4.50
2023-03-10T13:03:26.073Z,4.30
2023-03-10T13:06:04.158Z,4.33
2023-03-10T13:08:42.633Z,4.80
2023-03-10T13:11:25.396Z,4.30
2023-03-10T13:13:57.536Z,4.47
2023-03-10T13:16:25.827Z,4.17
2023-03-10T13:18:55.660Z,4.00
2023-03-10T13:21:26.618Z,4.33
2023-03-10T13:23:54.948Z,4.23
2023-03-10T13:26:24.385Z,4.13
2023-03-10T13:28:53.743Z,4.30
2023-03-10T13:31:25.112Z,4.27
2023-03-10T13:33:55.902Z,4.13
2023-03-10T13:36:32.974Z,4.37
2023-03-10T13:39:02.739Z,4.00
2023-03-10T13:41:37.247Z,4.80
2023-03-10T13:44:05.350Z,3.90
2023-03-10T13:46:35.128Z,4.40
2023-03-10T13:49:09.080Z,4.43
2023-03-10T13:51:38.436Z,4.43
2023-03-10T13:54:20.437Z,4.93
2023-03-10T13:56:49.864Z,4.13
2023-03-10T13:59:22.756Z,4.30
2023-03-10T14:01:53.754Z,4.90
2023-03-10T14:04:42.159Z,4.70
2023-03-10T14:07:11.620Z,16.97
2023-03-10T14:09:39.678Z,6.60
2023-03-10T14:12:08.422Z,4.70
2023-03-10T14:14:38.788Z,4.70
2023-03-10T14:17:08.245Z,4.60
2023-03-10T14:19:51.353Z,6.00
2023-03-10T14:22:29.566Z,4.87
2023-03-10T14:24:57.946Z,5.13
2023-03-10T14:27:26.928Z,5.47
2023-03-10T14:29:56.822Z,5.20
2023-03-10T14:32:25.835Z,3.67
2023-03-10T14:34:55.247Z,3.90
2023-03-10T14:37:24.009Z,4.17
2023-03-10T14:39:52.142Z,4.33
2023-03-10T14:42:23.558Z,4.07
2023-03-10T14:44:52.010Z,4.63
2023-03-10T14:47:20.371Z,3.77
2023-03-10T14:49:48.517Z,3.70
2023-03-10T14:52:20.405Z,4.37
2023-03-10T14:54:48.477Z,3.80
2023-03-10T14:57:22.347Z,3.87
2023-03-10T14:59:52.657Z,3.80
2023-03-10T15:02:23.518Z,3.33
2023-03-10T15:04:51.572Z,3.67
2023-03-10T15:07:21.011Z,3.77
2023-03-10T15:09:50.917Z,3.00
2023-03-10T15:12:22.636Z,3.33
2023-03-10T15:14:53.647Z,3.37
2023-03-10T15:17:21.815Z,3.30
2023-03-10T15:19:49.901Z,3.83
2023-03-10T15:22:17.880Z,3.63
2023-03-10T15:24:47.347Z,3.43
2023-03-10T15:27:15.651Z,2.37
2023-03-10T15:29:43.604Z,3.23
2023-03-10T15:32:11.709Z,3.40
2023-03-10T15:34:39.772Z,6.22
2023-03-10T15:37:08.736Z,15.45
2023-03-10T15:39:37.370Z,10.18
2023-03-10T15:42:07.223Z,6.63
2023-03-10T15:44:35.150Z,4.72
2023-03-10T15:47:03.315Z,3.03
2023-03-10T15:49:33.849Z,2.25
2023-03-10T15:52:01.773Z,2.77
2023-03-10T15:54:29.729Z,2.58
2023-03-10T15:56:57.682Z,2.78
2023-03-10T15:59:27.763Z,2.47
2023-03-10T16:01:55.844Z,2.50
2023-03-10T16:04:24.825Z,2.38
2023-03-10T16:06:53.186Z,2.30
2023-03-10T16:09:21.155Z,3.10
2023-03-10T16:11:49.143Z,2.70
2023-03-10T16:14:17.159Z,2.80
2023-03-10T16:16:46.506Z,2.77
2023-03-10T16:19:14.495Z,2.97
2023-03-10T16:21:42.493Z,2.38
2023-03-10T16:24:10.521Z,3.13
2023-03-10T16:26:39.574Z,3.27
2023-03-10T16:29:07.737Z,2.80
2023-03-10T16:31:35.898Z,3.37
2023-03-10T16:34:05.775Z,3.23
2023-03-10T16:36:36.634Z,3.03
2023-03-10T16:39:07.897Z,3.10
2023-03-10T16:41:35.878Z,3.57
2023-03-10T16:44:05.885Z,3.40
2023-03-10T16:46:34.442Z,3.13
2023-03-10T16:49:03.103Z,2.73
2023-03-10T16:51:38.071Z,2.90
2023-03-10T16:54:08.466Z,3.00
2023-03-10T16:56:38.522Z,2.03
2023-03-10T16:59:06.751Z,2.67
2023-03-10T17:01:35.038Z,2.60
2023-03-10T17:04:03.112Z,2.37
2023-03-10T17:06:33.651Z,2.40
2023-03-10T17:09:04.503Z,2.47
2023-03-10T17:11:34.672Z,2.33
2023-03-10T17:14:04.303Z,2.53
2023-03-10T17:16:34.588Z,2.17
2023-03-10T17:19:05.253Z,2.20
2023-03-10T17:21:36.089Z,2.67
2023-03-10T17:24:06.628Z,2.50
2023-03-10T17:26:34.812Z,2.33
2023-03-10T17:29:04.641Z,2.07
2023-03-10T17:31:33.434Z,2.23
2023-03-10T17:34:07.105Z,2.10
2023-03-10T17:36:35.778Z,2.50
2023-03-10T17:39:06.392Z,2.20
2023-03-10T17:41:36.583Z,2.33
2023-03-10T17:44:05.580Z,2.77
2023-03-10T17:46:33.772Z,2.23
2023-03-10T17:49:01.791Z,2.63
2023-03-10T17:51:31.601Z,2.97
2023-03-10T17:54:01.740Z,2.10
2023-03-10T17:56:31.313Z,2.47
2023-03-10T17:58:59.685Z,2.50
2023-03-10T18:01:29.261Z,2.67
2023-03-10T18:03:58.584Z,2.30
2023-03-10T18:06:28.927Z,4.23
2023-03-10T18:08:58.360Z,6.87
2023-03-10T18:11:27.285Z,6.07
2023-03-10T18:13:56.605Z,8.23
2023-03-10T18:16:26.625Z,13.07
2023-03-10T18:18:55.819Z,40.67
2023-03-10T18:21:24.391Z,29.53
2023-03-10T18:23:53.713Z,37.13
2023-03-10T18:26:24.740Z,19.37
2023-03-10T18:28:52.840Z,8.00
2023-03-10T18:31:24.150Z,6.30
2023-03-10T18:33:52.352Z,6.10
2023-03-10T18:36:23.293Z,11.43
2023-03-10T18:38:52.420Z,11.07
2023-03-10T18:41:21.464Z,6.67
2023-03-10T18:43:52.439Z,4.57
2023-03-10T18:46:22.565Z,4.00
2023-03-10T18:48:56.016Z,5.90
2023-03-10T18:51:25.259Z,5.23
2023-03-10T18:53:53.553Z,4.00
2023-03-10T18:56:21.576Z,3.53
2023-03-10T18:58:49.636Z,4.10
2023-03-10T19:01:17.650Z,3.37
2023-03-10T19:03:46.958Z,3.00
2023-03-10T19:06:14.916Z,3.87
2023-03-10T19:08:42.888Z,3.10
2023-03-10T19:11:11.290Z,3.30
2023-03-10T19:13:40.610Z,3.23
2023-03-10T19:16:09.960Z,3.70
2023-03-10T19:18:38.127Z,3.10
2023-03-10T19:21:09.629Z,2.70
2023-03-10T19:23:37.874Z,2.57
2023-03-10T19:26:09.012Z,2.67
2023-03-10T19:28:37.914Z,2.50
2023-03-10T19:31:10.445Z,2.47
2023-03-10T19:33:39.940Z,2.10
2023-03-10T19:36:12.649Z,1.90
2023-03-10T19:38:41.540Z,2.20
2023-03-10T19:41:14.072Z,2.17
2023-03-10T19:43:43.809Z,1.80
2023-03-10T19:46:13.905Z,1.90
2023-03-10T19:48:42.639Z,1.77
2023-03-10T19:51:20.975Z,1.90
2023-03-10T19:53:49.310Z,1.67
2023-03-10T19:56:19.372Z,1.88
2023-03-10T19:58:48.175Z,1.77
2023-03-10T20:01:17.165Z,2.00
2023-03-10T20:03:45.202Z,1.80
2023-03-10T20:06:14.653Z,1.88
2023-03-10T20:08:42.651Z,1.75
2023-03-10T20:11:13.586Z,2.00
2023-03-10T20:13:42.661Z,1.92
2023-03-10T20:16:12.636Z,1.80
2023-03-10T20:18:40.921Z,2.10
2023-03-10T20:21:11.358Z,2.00
2023-03-10T20:23:40.735Z,1.90
2023-03-10T20:26:10.898Z,1.80
2023-03-10T20:28:40.050Z,1.90
2023-03-10T20:31:08.097Z,2.10
2023-03-10T20:33:36.571Z,1.67
2023-03-10T20:36:05.599Z,1.95
2023-03-10T20:38:36.459Z,1.92
2023-03-10T20:41:06.100Z,2.13
2023-03-10T20:43:34.117Z,2.53
2023-03-10T20:46:02.314Z,2.33
2023-03-10T20:48:30.418Z,1.90
2023-03-10T20:50:59.157Z,1.75
2023-03-10T20:53:27.192Z,2.20
2023-03-10T20:55:55.357Z,1.90
2023-03-10T20:58:24.718Z,1.80
2023-03-10T21:00:52.850Z,1.90
2023-03-10T21:03:21.740Z,1.70
2023-03-10T21:05:49.845Z,1.70
2023-03-10T21:08:17.885Z,2.30
2023-03-10T21:10:48.179Z,2.20
2023-03-10T21:13:17.352Z,2.10
2023-03-10T21:15:46.722Z,2.08
2023-03-10T21:18:17.746Z,2.10
2023-03-10T21:20:45.716Z,1.70
2023-03-10T21:23:13.847Z,1.70
2023-03-10T21:25:42.230Z,1.77
2023-03-10T21:28:10.997Z,1.88
2023-03-10T21:30:39.095Z,1.80
2023-03-10T21:33:08.547Z,2.20
2023-03-10T21:35:38.685Z,1.80
2023-03-10T21:38:06.764Z,1.92
2023-03-10T21:40:34.883Z,1.65
2023-03-10T21:43:05.812Z,1.92
2023-03-10T21:45:37.401Z,2.10
2023-03-10T21:48:06.377Z,1.85
2023-03-10T21:50:35.770Z,2.05
2023-03-10T21:53:05.073Z,1.70
2023-03-10T21:55:34.561Z,2.05
2023-03-10T21:58:03.120Z,1.90
2023-03-10T22:00:31.140Z,1.80
2023-03-10T22:02:59.281Z,1.90
2023-03-10T22:05:27.436Z,1.70
2023-03-10T22:07:56.995Z,1.77
2023-03-10T22:10:25.124Z,1.70
2023-03-10T22:12:53.203Z,1.95
2023-03-10T22:15:23.237Z,1.95
2023-03-10T22:17:51.901Z,2.05
2023-03-10T22:20:22.254Z,1.70
2023-03-10T22:22:50.634Z,1.90
2023-03-10T22:25:21.433Z,1.92
2023-03-10T22:27:51.662Z,1.85
2023-03-10T22:30:20.398Z,1.70
2023-03-10T22:32:49.264Z,1.58
2023-03-10T22:35:18.002Z,1.90
2023-03-10T22:37:46.161Z,2.00
2023-03-10T22:40:20.857Z,1.52
2023-03-10T22:42:48.965Z,1.98
2023-03-10T22:45:21.060Z,1.83
2023-03-10T22:47:50.201Z,1.92
2023-03-10T22:50:22.369Z,1.63
2023-03-10T22:52:50.339Z,1.80
2023-03-10T22:55:25.079Z,1.60
2023-03-10T22:57:53.476Z,2.08
2023-03-10T23:00:23.126Z,1.65
2023-03-10T23:02:52.335Z,1.90
2023-03-10T23:05:21.051Z,1.73
2023-03-10T23:07:49.252Z,1.73
2023-03-10T23:10:21.531Z,1.88
2023-03-10T23:12:49.590Z,1.60
2023-03-10T23:15:25.288Z,1.80
2023-03-10T23:17:54.476Z,1.83
2023-03-10T23:20:26.972Z,1.92
2023-03-10T23:22:56.160Z,1.60
2023-03-10T23:25:28.770Z,2.00
2023-03-10T23:27:57.336Z,2.03
2023-03-10T23:30:25.361Z,1.90
2023-03-10T23:32:53.876Z,1.70
2023-03-10T23:35:24.395Z,1.98
2023-03-10T23:37:55.423Z,1.80
2023-03-10T23:40:27.284Z,2.05
2023-03-10T23:42:55.394Z,2.00
2023-03-10T23:45:25.548Z,2.15
2023-03-10T23:47:55.573Z,2.05
2023-03-10T23:50:25.989Z,1.75
2023-03-10T23:52:54.583Z,2.08
2023-03-10T23:55:26.725Z,1.75
2023-03-10T23:57:55.082Z,1.88
